Time;durP1;ratioP1;P1;durP2;ratioP2;P2;SDS_P1;SDS_P2;PMS_P1;PMS_P2;Temp;Humidity;BMP_temperature;BMP_pressure;BME280_temperature;BME280_humidity;BME280_pressure;Samples;Min_cycle;Max_cycle;Signal;HPM_P1;HPM_P2
2023/12/13 00:01:28;;;;;;;;;;;9.60;94.20;;;;;;5092573;28;19912;-75
2023/12/13 00:03:53;;;;;;;;;;;9.60;94.10;;;;;;5092390;28;19912;-74
2023/12/13 00:06:19;;;;;;;;;;;9.60;94.20;;;;;;5092415;28;20271;-75
2023/12/13 00:08:45;;;;;;;;;;;9.60;94.10;;;;;;5092412;28;19908;-75
2023/12/13 00:11:11;;;;;;;;;;;9.60;94.10;;;;;;5092369;28;19904;-75
2023/12/13 00:13:36;;;;;;;;;;;9.60;94.20;;;;;;5092265;28;20379;-75
2023/12/13 00:16:02;;;;;;;;;;;9.60;94.20;;;;;;5074165;28;19908;-75
2023/12/13 00:18:27;;;;;;;;;;;9.60;94.20;;;;;;5074089;28;19919;-75
2023/12/13 00:20:53;;;;;;;;;;;9.50;94.10;;;;;;5092162;28;20361;-75
2023/12/13 00:23:19;;;;;;;;;;;9.60;94.20;;;;;;5073930;28;20428;-75
2023/12/13 00:25:44;;;;;;;;;;;9.50;94.10;;;;;;5091952;28;19916;-75
2023/12/13 00:28:10;;;;;;;;;;;9.50;94.10;;;;;;5092117;28;19969;-75
2023/12/13 00:30:35;;;;;;;;;;;9.50;94.20;;;;;;5092241;28;19912;-75
2023/12/13 00:33:01;;;;;;;;;;;9.50;94.20;;;;;;5073937;28;19934;-75
2023/12/13 00:35:26;;;;;;;;;;;9.50;94.20;;;;;;5091915;28;19908;-75
2023/12/13 00:37:52;;;;;;;;;;;9.50;94.20;;;;;;5091861;28;19941;-75
2023/12/13 00:40:18;;;;;;;;;;;9.50;94.10;;;;;;5091926;28;19947;-75
2023/12/13 00:42:44;;;;;;;;;;;9.50;94.10;;;;;;5073453;28;20364;-75
2023/12/13 00:45:10;;;;;;;;;;;9.50;94.10;;;;;;5073486;28;19914;-75
2023/12/13 00:47:35;;;;;;;;;;;9.50;94.20;;;;;;5073538;28;20238;-75
2023/12/13 00:50:01;;;;;;;;;;;9.50;94.10;;;;;;5073548;28;20018;-75
2023/12/13 00:52:26;;;;;;;;;;;9.50;94.10;;;;;;5073573;28;19908;-75
2023/12/13 00:54:52;;;;;;;;;;;9.50;94.10;;;;;;5056672;28;20015;-75
2023/12/13 00:57:18;;;;;;;;;;;9.40;94.10;;;;;;5091597;28;20264;-75
2023/12/13 00:59:43;;;;;;;;;;;9.40;94.10;;;;;;5091611;28;20030;-75
2023/12/13 01:02:09;;;;;;;;;;;9.40;94.20;;;;;;5091701;28;19916;-75
2023/12/13 01:04:36;;;;;;;;;;;9.40;94.20;;;;;;5091481;28;19908;-75
2023/12/13 01:07:02;;;;;;;;;;;9.40;94.20;;;;;;5073453;28;19909;-75
2023/12/13 01:09:28;;;;;;;;;;;9.30;94.10;;;;;;5091586;28;19912;-75
2023/12/13 01:11:53;;;;;;;;;;;9.30;94.40;;;;;;5091622;28;19916;-75
2023/12/13 01:14:19;;;;;;;;;;;9.30;94.20;;;;;;5073333;28;19908;-76
2023/12/13 01:16:44;;;;;;;;;;;9.30;94.10;;;;;;5091515;28;19908;-75
2023/12/13 01:19:10;;;;;;;;;;;9.30;94.20;;;;;;5091536;28;19912;-75
2023/12/13 01:21:36;;;;;;;;;;;9.30;94.20;;;;;;5073327;28;19908;-75
2023/12/13 01:24:02;;;;;;;;;;;9.30;94.20;;;;;;5073221;28;19999;-75
2023/12/13 01:26:28;;;;;;;;;;;9.30;94.10;;;;;;5073167;28;19931;-75
2023/12/13 01:28:53;;;;;;;;;;;9.30;94.10;;;;;;5091393;28;20349;-75
2023/12/13 01:31:19;;;;;;;;;;;9.30;94.10;;;;;;5073263;28;19914;-75
2023/12/13 01:33:45;;;;;;;;;;;9.30;94.20;;;;;;5091418;28;19912;-75
2023/12/13 01:36:10;;;;;;;;;;;9.30;94.20;;;;;;5073380;28;19908;-75
2023/12/13 01:38:36;;;;;;;;;;;9.30;94.20;;;;;;5072936;28;19923;-75
2023/12/13 01:41:02;;;;;;;;;;;9.30;94.20;;;;;;5073178;28;19922;-75
2023/12/13 01:43:28;;;;;;;;;;;9.30;94.20;;;;;;5091297;28;19960;-75
2023/12/13 01:45:56;;;;;;;;;;;9.30;94.10;;;;;;5091169;28;19908;-75
2023/12/13 01:48:22;;;;;;;;;;;9.30;94.20;;;;;;5091266;28;19904;-75
2023/12/13 01:50:48;;;;;;;;;;;9.30;94.20;;;;;;5091151;28;19919;-75
2023/12/13 01:53:14;;;;;;;;;;;9.30;94.20;;;;;;5091161;28;19908;-75
2023/12/13 01:55:40;;;;;;;;;;;9.30;94.20;;;;;;5091033;28;19950;-75
2023/12/13 01:58:06;;;;;;;;;;;9.30;94.20;;;;;;5091127;28;19973;-75
2023/12/13 02:00:32;;;;;;;;;;;9.30;94.20;;;;;;5091137;28;19908;-75
2023/12/13 02:02:58;;;;;;;;;;;9.30;94.10;;;;;;5091012;28;19904;-75
2023/12/13 02:05:26;;;;;;;;;;;9.30;94.10;;;;;;5090964;28;20287;-75
2023/12/13 02:07:52;;;;;;;;;;;9.30;94.10;;;;;;5091089;28;19915;-75
2023/12/13 02:10:17;;;;;;;;;;;9.20;94.10;;;;;;5056396;28;20364;-75
2023/12/13 02:12:43;;;;;;;;;;;9.30;94.20;;;;;;5072812;28;19935;-75
2023/12/13 02:15:10;;;;;;;;;;;9.30;94.20;;;;;;5072840;28;19966;-75
2023/12/13 02:17:35;;;;;;;;;;;9.30;94.20;;;;;;5093562;28;19927;-75
2023/12/13 02:20:01;;;;;;;;;;;9.30;94.20;;;;;;5094662;28;20352;-75
2023/12/13 02:22:26;;;;;;;;;;;9.30;94.10;;;;;;5076325;28;20267;-75
2023/12/13 02:24:54;;;;;;;;;;;9.40;94.10;;;;;;5094355;28;19916;-75
2023/12/13 02:27:21;;;;;;;;;;;9.40;94.10;;;;;;5094550;28;19954;-75
2023/12/13 02:29:48;;;;;;;;;;;9.30;94.10;;;;;;5076105;28;19908;-75
2023/12/13 02:32:14;;;;;;;;;;;9.30;94.10;;;;;;5076333;28;20272;-75
2023/12/13 02:34:41;;;;;;;;;;;9.30;94.20;;;;;;5075902;28;19999;-75
2023/12/13 02:37:06;;;;;;;;;;;9.30;94.20;;;;;;5076126;28;20298;-75
2023/12/13 02:39:32;;;;;;;;;;;9.30;94.10;;;;;;5076135;28;19920;-75
2023/12/13 02:41:58;;;;;;;;;;;9.30;94.20;;;;;;5094193;28;19908;-75
2023/12/13 02:44:23;;;;;;;;;;;9.30;94.20;;;;;;5094014;28;19908;-76
2023/12/13 02:46:49;;;;;;;;;;;9.30;94.20;;;;;;5094153;28;19977;-75
2023/12/13 02:49:15;;;;;;;;;;;9.30;94.10;;;;;;5093985;28;20308;-75
2023/12/13 02:51:40;;;;;;;;;;;9.30;94.20;;;;;;5075577;28;20061;-75
2023/12/13 02:54:06;;;;;;;;;;;9.30;94.10;;;;;;5093794;28;19971;-75
2023/12/13 02:56:31;;;;;;;;;;;9.30;94.20;;;;;;5093883;28;20283;-75
2023/12/13 02:58:57;;;;;;;;;;;9.30;94.20;;;;;;5093698;28;19912;-75
2023/12/13 03:01:22;;;;;;;;;;;9.30;94.10;;;;;;5093989;28;19975;-75
2023/12/13 03:03:48;;;;;;;;;;;9.20;94.10;;;;;;5075528;28;19919;-75
2023/12/13 03:06:14;;;;;;;;;;;9.10;94.20;;;;;;5093693;28;19908;-75
2023/12/13 03:08:39;;;;;;;;;;;9.20;94.20;;;;;;5093677;28;19947;-75
2023/12/13 03:11:05;;;;;;;;;;;9.10;94.20;;;;;;5093565;28;20382;-75
2023/12/13 03:13:30;;;;;;;;;;;9.20;94.20;;;;;;5093528;28;20287;-74
2023/12/13 03:15:56;;;;;;;;;;;9.20;94.20;;;;;;5093502;28;20314;-75
2023/12/13 03:18:22;;;;;;;;;;;9.20;94.20;;;;;;5075220;28;19935;-75
2023/12/13 03:20:48;;;;;;;;;;;9.20;94.20;;;;;;5093407;28;19953;-75
2023/12/13 03:23:13;;;;;;;;;;;9.20;94.20;;;;;;5093307;28;19912;-75
2023/12/13 03:25:39;;;;;;;;;;;9.20;94.20;;;;;;5093120;28;19927;-75
2023/12/13 03:28:04;;;;;;;;;;;9.20;94.20;;;;;;5092367;28;19919;-73
2023/12/13 03:30:30;;;;;;;;;;;9.20;94.20;;;;;;5093189;28;19908;-75
2023/12/13 03:32:56;;;;;;;;;;;9.20;94.20;;;;;;5093098;28;19904;-75
2023/12/13 03:35:21;;;;;;;;;;;9.20;94.20;;;;;;5074842;28;19912;-75
2023/12/13 03:37:47;;;;;;;;;;;9.30;94.20;;;;;;5093211;28;20326;-74
2023/12/13 03:40:13;;;;;;;;;;;9.20;94.10;;;;;;5074960;28;19947;-74
2023/12/13 03:42:38;;;;;;;;;;;9.20;94.10;;;;;;5093077;28;19951;-74
2023/12/13 03:45:04;;;;;;;;;;;9.20;94.20;;;;;;5092853;28;20299;-74
2023/12/13 03:47:30;;;;;;;;;;;9.20;94.20;;;;;;5092959;28;19908;-74
2023/12/13 03:49:55;;;;;;;;;;;9.20;94.10;;;;;;5092902;28;19961;-74
2023/12/13 03:52:21;;;;;;;;;;;9.20;94.10;;;;;;5074782;28;19908;-75
2023/12/13 03:54:46;;;;;;;;;;;9.20;94.10;;;;;;5092532;28;19911;-74
2023/12/13 03:57:12;;;;;;;;;;;9.30;94.20;;;;;;5074588;28;20441;-74
2023/12/13 03:59:38;;;;;;;;;;;9.20;94.10;;;;;;5074563;28;20417;-74
2023/12/13 04:02:03;;;;;;;;;;;9.20;94.10;;;;;;5057760;28;19935;-75
2023/12/13 04:04:29;;;;;;;;;;;9.20;94.10;;;;;;5074159;28;20379;-74
2023/12/13 04:06:54;;;;;;;;;;;9.20;94.10;;;;;;5074525;28;19912;-75
2023/12/13 04:09:20;;;;;;;;;;;9.20;94.10;;;;;;5092463;28;19946;-74
2023/12/13 04:11:45;;;;;;;;;;;9.20;94.10;;;;;;5074286;28;19908;-74
2023/12/13 04:14:11;;;;;;;;;;;9.10;94.10;;;;;;5074134;28;19935;-74
2023/12/13 04:16:36;;;;;;;;;;;9.10;94.10;;;;;;5092338;28;19912;-74
2023/12/13 04:19:02;;;;;;;;;;;9.10;94.10;;;;;;5074157;28;19962;-74
2023/12/13 04:21:27;;;;;;;;;;;9.10;94.10;;;;;;5074019;28;19921;-74
2023/12/13 04:23:53;;;;;;;;;;;9.10;94.20;;;;;;5092148;28;20011;-74
2023/12/13 04:26:19;;;;;;;;;;;9.10;94.20;;;;;;5092084;28;19920;-74
2023/12/13 04:28:44;;;;;;;;;;;9.10;94.20;;;;;;5073844;28;19942;-74
2023/12/13 04:31:10;;;;;;;;;;;9.10;94.10;;;;;;5074212;28;19908;-74
2023/12/13 04:33:35;;;;;;;;;;;9.10;94.10;;;;;;5092123;28;20379;-75
2023/12/13 04:36:01;;;;;;;;;;;9.10;94.10;;;;;;5092036;28;20279;-75
2023/12/13 04:38:27;;;;;;;;;;;9.00;94.10;;;;;;5073916;28;19915;-74
2023/12/13 04:40:53;;;;;;;;;;;9.10;94.10;;;;;;5073817;28;19920;-74
2023/12/13 04:43:18;;;;;;;;;;;9.10;94.10;;;;;;5092004;28;20040;-74
2023/12/13 04:45:44;;;;;;;;;;;9.00;94.00;;;;;;5091888;28;19928;-75
2023/12/13 04:48:09;;;;;;;;;;;9.10;94.10;;;;;;5092062;28;19908;-74
2023/12/13 04:50:35;;;;;;;;;;;9.00;94.10;;;;;;5091854;28;20073;-74
2023/12/13 04:53:02;;;;;;;;;;;9.00;94.10;;;;;;5091599;28;20406;-75
2023/12/13 04:55:27;;;;;;;;;;;9.00;94.10;;;;;;5091395;28;19904;-75
2023/12/13 04:57:53;;;;;;;;;;;9.00;94.00;;;;;;5091323;28;20256;-74
2023/12/13 05:00:18;;;;;;;;;;;9.00;94.00;;;;;;5073260;28;19908;-74
2023/12/13 05:02:45;;;;;;;;;;;8.90;94.00;;;;;;5091345;28;19919;-74
2023/12/13 05:05:10;;;;;;;;;;;8.90;94.00;;;;;;5091432;28;19987;-74
2023/12/13 05:07:36;;;;;;;;;;;8.80;93.90;;;;;;5091594;28;19912;-74
2023/12/13 05:10:01;;;;;;;;;;;8.70;93.90;;;;;;5091458;28;20395;-74
2023/12/13 05:12:27;;;;;;;;;;;8.70;93.90;;;;;;5091582;28;19909;-74
2023/12/13 05:14:52;;;;;;;;;;;8.60;93.90;;;;;;5073335;28;20082;-74
2023/12/13 05:17:18;;;;;;;;;;;8.50;93.90;;;;;;5056991;28;19915;-74
2023/12/13 05:19:43;;;;;;;;;;;8.40;93.90;;;;;;5091474;28;19912;-74
2023/12/13 05:22:09;;;;;;;;;;;8.30;93.90;;;;;;5073413;28;19995;-74
2023/12/13 05:24:35;;;;;;;;;;;8.30;93.90;;;;;;5073202;28;19931;-74
2023/12/13 05:27:01;;;;;;;;;;;8.20;93.90;;;;;;5091236;28;19920;-74
2023/12/13 05:29:26;;;;;;;;;;;8.20;93.90;;;;;;5091556;28;19919;-75
2023/12/13 05:31:52;;;;;;;;;;;8.20;94.00;;;;;;5091344;28;19912;-74
2023/12/13 05:34:17;;;;;;;;;;;8.20;93.90;;;;;;5091309;28;20356;-74
2023/12/13 05:36:43;;;;;;;;;;;8.10;93.90;;;;;;5091380;28;20379;-74
2023/12/13 05:39:08;;;;;;;;;;;8.10;93.90;;;;;;5072997;28;20312;-74
2023/12/13 05:41:34;;;;;;;;;;;8.00;93.80;;;;;;5091310;28;20307;-74
2023/12/13 05:43:59;;;;;;;;;;;7.90;93.80;;;;;;5073037;28;20345;-74
2023/12/13 05:46:25;;;;;;;;;;;7.90;93.80;;;;;;5091113;28;19908;-75
2023/12/13 05:48:51;;;;;;;;;;;7.90;93.80;;;;;;5073110;28;20323;-74
2023/12/13 05:51:17;;;;;;;;;;;7.90;93.80;;;;;;5073815;28;19919;-74
2023/12/13 05:53:42;;;;;;;;;;;7.80;93.80;;;;;;5076736;28;19989;-74
2023/12/13 05:56:08;;;;;;;;;;;7.80;93.80;;;;;;5094827;28;19919;-74
2023/12/13 05:58:34;;;;;;;;;;;7.80;93.80;;;;;;5094741;28;19919;-75
2023/12/13 06:00:59;;;;;;;;;;;7.70;93.70;;;;;;5060118;28;19908;-75
2023/12/13 06:03:25;;;;;;;;;;;7.70;93.70;;;;;;5094837;28;20206;-74
2023/12/13 06:05:51;;;;;;;;;;;7.60;93.70;;;;;;5076430;28;19931;-74
2023/12/13 06:08:16;;;;;;;;;;;7.50;93.70;;;;;;5094758;28;20265;-74
2023/12/13 06:10:42;;;;;;;;;;;7.50;93.70;;;;;;5076549;28;19908;-74
2023/12/13 06:13:07;;;;;;;;;;;7.50;93.70;;;;;;5094607;28;19907;-74
2023/12/13 06:15:34;;;;;;;;;;;7.50;93.70;;;;;;5059949;28;19916;-74
2023/12/13 06:18:00;;;;;;;;;;;7.40;93.70;;;;;;5094500;28;19985;-74
2023/12/13 06:20:26;;;;;;;;;;;7.40;93.70;;;;;;5094939;28;19956;-74
2023/12/13 06:22:51;;;;;;;;;;;7.30;93.70;;;;;;5094525;28;19908;-74
2023/12/13 06:25:17;;;;;;;;;;;7.30;93.70;;;;;;5094198;28;19923;-74
2023/12/13 06:27:42;;;;;;;;;;;7.30;93.70;;;;;;5076346;28;20315;-74
2023/12/13 06:30:08;;;;;;;;;;;7.30;93.60;;;;;;5076252;28;20270;-75
2023/12/13 06:32:34;;;;;;;;;;;7.30;93.60;;;;;;5094252;28;19908;-74
2023/12/13 06:35:00;;;;;;;;;;;7.20;93.60;;;;;;5076348;28;20291;-74
2023/12/13 06:37:26;;;;;;;;;;;7.20;93.60;;;;;;5076020;28;20049;-74
2023/12/13 06:39:51;;;;;;;;;;;7.20;93.60;;;;;;5093975;28;20044;-74
2023/12/13 06:42:17;;;;;;;;;;;7.10;93.60;;;;;;5094107;28;19912;-74
2023/12/13 06:44:42;;;;;;;;;;;7.10;93.60;;;;;;5075713;28;19912;-74
2023/12/13 06:47:08;;;;;;;;;;;7.00;93.60;;;;;;5075638;28;19973;-74
2023/12/13 06:49:34;;;;;;;;;;;7.00;93.60;;;;;;5058754;28;19938;-74
2023/12/13 06:52:00;;;;;;;;;;;7.00;93.60;;;;;;5075771;28;20252;-74
2023/12/13 06:54:25;;;;;;;;;;;7.00;93.60;;;;;;5093726;28;19904;-74
2023/12/13 06:56:51;;;;;;;;;;;6.90;93.60;;;;;;5093531;28;19969;-74
2023/12/13 06:59:16;;;;;;;;;;;6.90;93.60;;;;;;5093435;28;19938;-73
2023/12/13 07:01:42;;;;;;;;;;;6.90;93.60;;;;;;5093792;28;19935;-74
2023/12/13 07:04:08;;;;;;;;;;;6.80;93.60;;;;;;5092154;28;19911;-74
2023/12/13 07:06:33;;;;;;;;;;;6.80;93.60;;;;;;5075347;28;19949;-74
2023/12/13 07:08:59;;;;;;;;;;;6.80;93.60;;;;;;5096115;28;19904;-75
2023/12/13 07:11:25;;;;;;;;;;;6.80;93.60;;;;;;5096845;28;19915;-75
2023/12/13 07:13:50;;;;;;;;;;;6.70;93.60;;;;;;5093357;28;19998;-75
2023/12/13 07:16:16;;;;;;;;;;;6.70;93.60;;;;;;5093414;28;19966;-75
2023/12/13 07:18:42;;;;;;;;;;;6.70;93.60;;;;;;5074926;28;20382;-75
2023/12/13 07:21:08;;;;;;;;;;;6.70;93.60;;;;;;5093367;28;20010;-75
2023/12/13 07:23:35;;;;;;;;;;;6.60;93.60;;;;;;5093205;28;19919;-75
2023/12/13 07:26:01;;;;;;;;;;;6.60;93.60;;;;;;5075280;28;19923;-75
2023/12/13 07:28:28;;;;;;;;;;;6.60;93.60;;;;;;5093259;28;19944;-75
2023/12/13 07:30:55;;;;;;;;;;;6.60;93.60;;;;;;5092864;28;19947;-75
2023/12/13 07:33:20;;;;;;;;;;;6.60;93.60;;;;;;5093099;28;20257;-75
2023/12/13 07:35:47;;;;;;;;;;;6.50;93.50;;;;;;5074765;28;19912;-75
2023/12/13 07:38:14;;;;;;;;;;;6.50;93.50;;;;;;5092864;28;19963;-75
2023/12/13 07:40:39;;;;;;;;;;;6.50;93.50;;;;;;5074583;28;19914;-75
2023/12/13 07:43:05;;;;;;;;;;;6.50;93.50;;;;;;5074596;28;20002;-75
2023/12/13 07:45:31;;;;;;;;;;;6.50;93.40;;;;;;5074624;28;19912;-75
2023/12/13 07:47:57;;;;;;;;;;;6.50;93.40;;;;;;5092577;28;19911;-75
2023/12/13 07:50:23;;;;;;;;;;;6.50;93.40;;;;;;5092580;28;19912;-75
2023/12/13 07:52:48;;;;;;;;;;;6.40;93.40;;;;;;5074517;28;19914;-75
2023/12/13 07:55:18;;;;;;;;;;;6.40;93.40;;;;;;5074225;28;19916;-75
2023/12/13 07:57:44;;;;;;;;;;;6.40;93.40;;;;;;5073992;28;20257;-74
2023/12/13 08:00:10;;;;;;;;;;;6.40;93.30;;;;;;5057781;28;19914;-75
2023/12/13 08:02:36;;;;;;;;;;;6.40;93.30;;;;;;5057503;28;19954;-75
2023/12/13 08:05:02;;;;;;;;;;;6.30;93.30;;;;;;5092024;28;20306;-75
2023/12/13 08:07:27;;;;;;;;;;;6.30;93.40;;;;;;5092411;28;20405;-75
2023/12/13 08:09:54;;;;;;;;;;;6.30;93.40;;;;;;5074213;28;19912;-75
2023/12/13 08:12:20;;;;;;;;;;;6.30;93.40;;;;;;5092668;28;19915;-75
2023/12/13 08:14:45;;;;;;;;;;;6.30;93.40;;;;;;5056976;28;19908;-74
2023/12/13 08:17:11;;;;;;;;;;;6.30;93.40;;;;;;5073903;28;20282;-74
2023/12/13 08:19:37;;;;;;;;;;;6.30;93.40;;;;;;5091853;28;19960;-74
2023/12/13 08:22:03;;;;;;;;;;;6.30;93.40;;;;;;5073764;28;19912;-75
2023/12/13 08:24:29;;;;;;;;;;;6.30;93.40;;;;;;5073844;28;20382;-75
2023/12/13 08:26:54;;;;;;;;;;;6.30;93.40;;;;;;5091875;28;20321;-74
2023/12/13 08:29:20;;;;;;;;;;;6.30;93.40;;;;;;5073753;28;19908;-74
2023/12/13 08:31:45;;;;;;;;;;;6.30;93.40;;;;;;5091993;28;19990;-75
2023/12/13 08:34:11;;;;;;;;;;;6.30;93.40;;;;;;5091880;28;19966;-75
2023/12/13 08:36:36;;;;;;;;;;;6.30;93.40;;;;;;5073530;28;19985;-75
2023/12/13 08:39:02;;;;;;;;;;;6.30;93.40;;;;;;5073594;28;19912;-74
2023/12/13 08:41:28;;;;;;;;;;;6.30;93.40;;;;;;5092051;28;19943;-74
2023/12/13 08:43:53;;;;;;;;;;;6.30;93.40;;;;;;5091236;28;19953;-74
2023/12/13 08:46:19;;;;;;;;;;;6.30;93.40;;;;;;5056274;28;19904;-74
2023/12/13 08:48:45;;;;;;;;;;;6.30;93.40;;;;;;5091540;28;19919;-74
2023/12/13 08:51:11;;;;;;;;;;;6.30;93.40;;;;;;5091863;28;19958;-74
2023/12/13 08:53:36;;;;;;;;;;;6.30;93.40;;;;;;5091378;28;19991;-74
2023/12/13 08:56:02;;;;;;;;;;;6.30;93.40;;;;;;5073081;28;19908;-74
2023/12/13 08:58:28;;;;;;;;;;;6.40;93.40;;;;;;5091492;28;20363;-75
2023/12/13 09:00:53;;;;;;;;;;;6.40;93.40;;;;;;5110604;28;20011;-75
2023/12/13 09:03:22;;;;;;;;;;;6.40;93.50;;;;;;5110889;28;19919;-74
2023/12/13 09:05:49;;;;;;;;;;;6.40;93.40;;;;;;5089925;28;20007;-73
2023/12/13 09:08:14;;;;;;;;;;;6.40;93.50;;;;;;5108705;28;19932;-72
2023/12/13 09:10:40;;;;;;;;;;;6.50;93.40;;;;;;5109316;28;19911;-73
2023/12/13 09:13:06;;;;;;;;;;;6.50;93.40;;;;;;5111078;28;20275;-73
2023/12/13 09:15:31;;;;;;;;;;;6.50;93.50;;;;;;5111161;28;20293;-73
2023/12/13 09:17:57;;;;;;;;;;;6.50;93.50;;;;;;5110908;28;19959;-73
2023/12/13 09:20:23;;;;;;;;;;;6.60;93.50;;;;;;5111421;28;19912;-73
2023/12/13 09:22:48;;;;;;;;;;;6.60;93.50;;;;;;5103743;28;20344;-74
2023/12/13 09:25:17;;;;;;;;;;;6.70;93.70;;;;;;5109978;28;19916;-73
2023/12/13 09:27:43;;;;;;;;;;;6.90;94.00;;;;;;5094569;28;19904;-73
2023/12/13 09:30:14;;;;;;;;;;;7.20;94.10;;;;;;5095566;28;20368;-74
2023/12/13 09:32:39;;;;;;;;;;;7.50;94.10;;;;;;5113021;28;19904;-74
2023/12/13 09:35:05;;;;;;;;;;;7.80;94.20;;;;;;5111410;28;19999;-73
2023/12/13 09:37:32;;;;;;;;;;;8.10;94.10;;;;;;5093581;28;19915;-73
2023/12/13 09:39:59;;;;;;;;;;;8.30;94.10;;;;;;5115215;28;19911;-74
2023/12/13 09:42:25;;;;;;;;;;;8.50;94.10;;;;;;5115928;28;19951;-73
2023/12/13 09:44:52;;;;;;;;;;;8.60;93.80;;;;;;5115478;28;19904;-73
2023/12/13 09:47:20;;;;;;;;;;;8.40;93.50;;;;;;5113056;28;19910;-73
2023/12/13 09:49:47;;;;;;;;;;;8.20;93.40;;;;;;5110061;28;19995;-74
2023/12/13 09:52:16;;;;;;;;;;;8.10;93.40;;;;;;5108185;28;19916;-74
2023/12/13 09:54:44;;;;;;;;;;;7.90;93.50;;;;;;5113651;28;19957;-73
2023/12/13 09:57:09;;;;;;;;;;;7.90;93.60;;;;;;5096395;28;20006;-73
2023/12/13 09:59:36;;;;;;;;;;;7.80;93.70;;;;;;5096178;28;20002;-73
2023/12/13 10:02:01;;;;;;;;;;;8.00;94.10;;;;;;5115142;28;19990;-74
2023/12/13 10:04:28;;;;;;;;;;;8.70;95.10;;;;;;5115243;28;20102;-73
2023/12/13 10:06:56;;;;;;;;;;;9.60;95.50;;;;;;5115252;28;19919;-73
2023/12/13 10:09:31;;;;;;;;;;;10.60;95.60;;;;;;5114925;28;19912;-74
2023/12/13 10:11:58;;;;;;;;;;;11.50;95.50;;;;;;5116340;28;19911;-75
2023/12/13 10:14:24;;;;;;;;;;;12.30;95.30;;;;;;5098280;28;19908;-74
2023/12/13 10:16:49;;;;;;;;;;;12.90;95.20;;;;;;5112010;28;19912;-74
2023/12/13 10:19:16;;;;;;;;;;;13.50;95.10;;;;;;5103761;28;19914;-75
2023/12/13 10:21:41;;;;;;;;;;;14.00;95.10;;;;;;5117031;28;20247;-74
2023/12/13 10:24:07;;;;;;;;;;;14.40;95.10;;;;;;5116597;28;19919;-75
2023/12/13 10:26:34;;;;;;;;;;;14.70;94.90;;;;;;5116119;28;20409;-75
2023/12/13 10:29:00;;;;;;;;;;;15.00;95.00;;;;;;5116609;28;19907;-74
2023/12/13 10:31:25;;;;;;;;;;;15.20;95.00;;;;;;5116388;28;19960;-76
2023/12/13 10:33:51;;;;;;;;;;;15.50;95.00;;;;;;5116384;28;20360;-75
2023/12/13 10:36:18;;;;;;;;;;;15.70;94.80;;;;;;5116143;28;19907;-73
2023/12/13 10:38:45;;;;;;;;;;;15.60;94.90;;;;;;5097789;28;19922;-74
2023/12/13 10:41:12;;;;;;;;;;;15.70;95.30;;;;;;5116625;28;20356;-75
2023/12/13 10:43:41;;;;;;;;;;;15.80;95.10;;;;;;5116129;28;20389;-74
2023/12/13 10:46:08;;;;;;;;;;;15.90;95.30;;;;;;5116013;28;19904;-74
2023/12/13 10:48:37;;;;;;;;;;;15.80;95.20;;;;;;5108682;28;20018;-74
2023/12/13 10:51:03;;;;;;;;;;;15.70;95.40;;;;;;5095977;28;19952;-74
2023/12/13 10:53:30;;;;;;;;;;;15.90;95.70;;;;;;5111758;28;19903;-74
2023/12/13 10:55:57;;;;;;;;;;;15.90;95.60;;;;;;5107485;28;20268;-74
2023/12/13 10:58:23;;;;;;;;;;;16.10;95.90;;;;;;5095283;28;20142;-72
2023/12/13 11:00:49;;;;;;;;;;;16.30;95.80;;;;;;5107201;28;19908;-74
2023/12/13 11:03:20;;;;;;;;;;;16.40;95.70;;;;;;5115704;28;19904;-73
2023/12/13 11:05:45;;;;;;;;;;;16.30;95.60;;;;;;5115727;28;19968;-74
2023/12/13 11:08:16;;;;;;;;;;;16.30;95.50;;;;;;5115371;28;19912;-75
2023/12/13 11:10:53;;;;;;;;;;;16.30;95.90;;;;;;5115646;28;19949;-75
2023/12/13 11:13:25;;;;;;;;;;;16.50;95.90;;;;;;5115866;28;19947;-74
2023/12/13 11:15:51;;;;;;;;;;;16.50;95.70;;;;;;5115419;28;19915;-75
2023/12/13 11:18:17;;;;;;;;;;;16.50;96.10;;;;;;5076889;28;19912;-74
2023/12/13 11:20:53;;;;;;;;;;;16.70;96.10;;;;;;5076906;28;19964;-73
2023/12/13 11:23:26;;;;;;;;;;;16.90;95.90;;;;;;5095032;28;19904;-74
2023/12/13 11:25:51;;;;;;;;;;;16.90;95.90;;;;;;5094958;28;19942;-74
2023/12/13 11:28:23;;;;;;;;;;;17.10;96.20;;;;;;5094865;28;20439;-74
2023/12/13 11:30:50;;;;;;;;;;;17.30;96.10;;;;;;5095484;28;19911;-76
2023/12/13 11:33:17;;;;;;;;;;;17.50;96.10;;;;;;5094955;28;19973;-74
2023/12/13 11:35:45;;;;;;;;;;;17.60;96.10;;;;;;5076688;28;20267;-73
2023/12/13 11:38:11;;;;;;;;;;;17.80;96.20;;;;;;5094932;28;19912;-75
2023/12/13 11:40:39;;;;;;;;;;;18.00;96.20;;;;;;5059810;28;19908;-74
2023/12/13 11:43:05;;;;;;;;;;;18.20;96.10;;;;;;5094916;28;19904;-75
2023/12/13 11:45:30;;;;;;;;;;;18.10;95.60;;;;;;5094849;28;19998;-74
2023/12/13 11:47:56;;;;;;;;;;;17.90;95.70;;;;;;5075875;28;19912;-74
2023/12/13 11:50:22;;;;;;;;;;;17.70;95.80;;;;;;5093526;28;20275;-74
2023/12/13 11:52:47;;;;;;;;;;;17.50;95.80;;;;;;5094496;28;20343;-74
2023/12/13 11:55:13;;;;;;;;;;;17.40;96.20;;;;;;5093882;28;19939;-76
2023/12/13 11:57:39;;;;;;;;;;;17.50;96.30;;;;;;5094463;28;20362;-74
2023/12/13 12:00:05;;;;;;;;;;;17.50;96.20;;;;;;5094257;28;19914;-74
2023/12/13 12:02:31;;;;;;;;;;;17.40;96.20;;;;;;5085309;28;19991;-75
2023/12/13 12:05:01;;;;;;;;;;;17.40;96.40;;;;;;5114279;28;19908;-74
2023/12/13 12:07:26;;;;;;;;;;;17.50;96.20;;;;;;5114313;28;20018;-73
2023/12/13 12:09:53;;;;;;;;;;;17.40;96.20;;;;;;5110134;28;19908;-74
2023/12/13 12:12:19;;;;;;;;;;;17.50;96.60;;;;;;5103718;28;19911;-73
2023/12/13 12:14:47;;;;;;;;;;;17.70;96.40;;;;;;5114237;28;19903;-73
2023/12/13 12:17:14;;;;;;;;;;;17.60;96.10;;;;;;5114237;28;19923;-73
2023/12/13 12:19:40;;;;;;;;;;;17.40;96.20;;;;;;5111660;28;19930;-73
2023/12/13 12:22:05;;;;;;;;;;;17.30;96.30;;;;;;5094369;28;19904;-74
2023/12/13 12:24:34;;;;;;;;;;;17.30;96.40;;;;;;5094088;28;20390;-73
2023/12/13 12:27:12;;;;;;;;;;;17.00;95.80;;;;;;5111717;28;19916;-74
2023/12/13 12:29:38;;;;;;;;;;;16.50;95.30;;;;;;5095932;28;19915;-74
2023/12/13 12:32:08;;;;;;;;;;;15.60;94.90;;;;;;5113868;28;19981;-73
2023/12/13 12:34:36;;;;;;;;;;;14.80;94.70;;;;;;5112354;28;19908;-73
2023/12/13 12:37:03;;;;;;;;;;;14.00;94.90;;;;;;5111245;28;19911;-74
2023/12/13 12:39:34;;;;;;;;;;;13.40;95.20;;;;;;5113280;28;19919;-69
2023/12/13 12:42:00;;;;;;;;;;;13.10;95.40;;;;;;5099712;28;20363;-73
2023/12/13 12:44:25;;;;;;;;;;;12.80;95.50;;;;;;5075677;28;19908;-73
2023/12/13 12:46:51;;;;;;;;;;;12.40;95.40;;;;;;5091937;28;19914;-73
2023/12/13 12:49:18;;;;;;;;;;;12.10;95.50;;;;;;5113652;28;19912;-73
2023/12/13 12:51:43;;;;;;;;;;;11.80;95.70;;;;;;5113329;28;19916;-74
2023/12/13 12:54:09;;;;;;;;;;;11.60;95.80;;;;;;5111990;28;20260;-74
2023/12/13 12:56:36;;;;;;;;;;;11.50;95.90;;;;;;5101876;28;19904;-74
2023/12/13 12:59:05;;;;;;;;;;;11.30;95.80;;;;;;5103058;28;19959;-74
2023/12/13 13:01:31;;;;;;;;;;;11.20;95.80;;;;;;5113044;28;19986;-74
2023/12/13 13:03:57;;;;;;;;;;;11.20;95.80;;;;;;5085489;28;20313;-73
2023/12/13 13:06:22;;;;;;;;;;;11.10;95.80;;;;;;5110904;28;19998;-73
2023/12/13 13:08:49;;;;;;;;;;;11.00;95.70;;;;;;5113463;28;19986;-74
2023/12/13 13:11:15;;;;;;;;;;;10.90;95.70;;;;;;5113613;28;19904;-74
2023/12/13 13:13:40;;;;;;;;;;;10.80;95.70;;;;;;5112854;28;19907;-74
2023/12/13 13:16:06;;;;;;;;;;;10.70;95.70;;;;;;5113174;28;19931;-74
2023/12/13 13:18:35;;;;;;;;;;;10.80;95.70;;;;;;5113219;28;20018;-74
2023/12/13 13:21:00;;;;;;;;;;;10.70;95.70;;;;;;5113520;28;19957;-74
2023/12/13 13:23:26;;;;;;;;;;;10.80;95.60;;;;;;5113401;28;19908;-74
2023/12/13 13:25:52;;;;;;;;;;;10.80;95.60;;;;;;5112618;28;20299;-74
2023/12/13 13:28:18;;;;;;;;;;;10.90;95.90;;;;;;5110916;28;19954;-74
2023/12/13 13:30:43;;;;;;;;;;;11.00;96.10;;;;;;5111913;28;20011;-74
2023/12/13 13:33:10;;;;;;;;;;;11.30;96.40;;;;;;5113364;28;19914;-74
2023/12/13 13:35:39;;;;;;;;;;;11.50;96.60;;;;;;5113489;28;19907;-74
2023/12/13 13:38:04;;;;;;;;;;;11.80;96.80;;;;;;5113825;28;19931;-73
2023/12/13 13:40:30;;;;;;;;;;;12.20;96.90;;;;;;5113646;28;20412;-74
2023/12/13 13:42:55;;;;;;;;;;;12.50;96.70;;;;;;5078049;28;19915;-74
2023/12/13 13:45:21;;;;;;;;;;;12.60;96.60;;;;;;5110459;28;19907;-74
2023/12/13 13:47:47;;;;;;;;;;;12.60;96.50;;;;;;5113364;28;19990;-74
2023/12/13 13:50:12;;;;;;;;;;;12.60;96.60;;;;;;5113109;28;19994;-74
2023/12/13 13:52:38;;;;;;;;;;;12.80;96.70;;;;;;5113397;28;19915;-73
2023/12/13 13:55:05;;;;;;;;;;;12.90;96.60;;;;;;5113568;28;19911;-74
2023/12/13 13:57:32;;;;;;;;;;;12.90;96.40;;;;;;5095273;28;19942;-74
2023/12/13 13:59:57;;;;;;;;;;;13.00;96.40;;;;;;5094661;28;19912;-74
2023/12/13 14:02:33;;;;;;;;;;;12.90;96.30;;;;;;5112515;28;19919;-74
2023/12/13 14:05:01;;;;;;;;;;;12.80;96.20;;;;;;5112773;28;20239;-73
2023/12/13 14:07:27;;;;;;;;;;;12.70;96.40;;;;;;5112953;28;19907;-73
2023/12/13 14:09:52;;;;;;;;;;;12.70;96.40;;;;;;5114027;28;20359;-74
2023/12/13 14:12:18;;;;;;;;;;;12.70;96.40;;;;;;5114119;28;20335;-74
2023/12/13 14:14:44;;;;;;;;;;;12.80;96.20;;;;;;5117435;28;19912;-74
2023/12/13 14:17:10;;;;;;;;;;;12.80;96.10;;;;;;5117391;28;20501;-74
2023/12/13 14:19:37;;;;;;;;;;;12.80;96.00;;;;;;5117311;28;20258;-72